Weather

DAILY 7 DAY TOTAL
onrain

Note: Some stations are located near irrigated fields and may also report irrigation

Alliston Mount Forest Blyth Guelph Grand Bend Strathroy Woodstock Belmont Simcoe Leamington Chatham West Lorne






West Lorne - Historical Weather Data
Date Max Temp (°C) Min Temp (°C) Avg Temp (°C) Rain (mm) 7Day Rain(mm) Total Rain(mm) Avg RH (%)
5/22/2019 16.7 7.4 12.1 1.4 3.4 94.6 84.7
5/21/2019 19.6 2.3 11.3 0.0 4.8 93.2 77.7
5/20/2019 15.6 4.5 12.4 0.0 4.8 93.2 91.7
5/19/2019 27.7 11.5 17.8 2.0 9.4 93.2 89.6
5/18/2019 17.5 5.6 11.9 0.0 11.8 91.2 85.1
5/17/2019 18.6 7.2 13.6 0.0 11.8 91.2 83.3
5/16/2019 19.2 5.5 13.7 0.0 18.0 91.2 81.6
5/15/2019 21.8 7.4 13.5 2.8 34.8 91.2 82.9
5/14/2019 18.8 5.0 11.3 0.0 32.0 88.4 78.3
5/13/2019 9.2 5.3 6.7 4.6 38.6 88.4 97.3
5/12/2019 12.0 6.3 8.4 4.4 35.2 83.8 92.4
5/11/2019 13.6 1.9 7.9 0.0 30.8 79.4 83.2
5/10/2019 16.8 4.4 11.7 6.2 31.4 79.4 92.1
5/9/2019 22.2 9.5 15.2 16.8 33.0 73.2 85.8
5/8/2019 15.7 2.9 9.5 0.0 21.0 56.4 75.5
5/7/2019 9.5 3.0 6.8 6.6 56.4 56.4 95.9
5/6/2019 22.1 6.6 13.5 1.2 57.8 49.8 85.2
5/5/2019 20.3 4.5 12.1 0.0 60.6 48.6 87.1
5/4/2019 13.4 5.9 8.9 0.6 64.8 48.6 97.8
5/3/2019 11.1 6.1 8.6 7.8 64.2 48.0 99.9
5/2/2019 17.5 5.4 11.1 4.8 70.8 40.2 95.5
5/1/2019 17.4 6.2 11.8 35.4 66.4 35.4 98.9